sensor_id;sensor_type;location;lat;lon;timestamp;temperature;humidity
48454;DHT22;34261;55.678;12.464;2024-03-07T00:09:51;3.40;99.90
48454;DHT22;34261;55.678;12.464;2024-03-07T00:38:13;3.40;99.90
48454;DHT22;34261;55.678;12.464;2024-03-07T00:40:45;3.40;99.90
48454;DHT22;34261;55.678;12.464;2024-03-07T00:43:17;3.40;99.90
48454;DHT22;34261;55.678;12.464;2024-03-07T00:45:44;3.40;99.90
48454;DHT22;34261;55.678;12.464;2024-03-07T00:48:42;3.30;99.90
48454;DHT22;34261;55.678;12.464;2024-03-07T00:51:58;3.30;99.90
48454;DHT22;34261;55.678;12.464;2024-03-07T01:02:29;3.40;99.90
48454;DHT22;34261;55.678;12.464;2024-03-07T01:21:02;3.20;99.90
48454;DHT22;34261;55.678;12.464;2024-03-07T01:23:28;3.10;99.90
48454;DHT22;34261;55.678;12.464;2024-03-07T02:04:44;2.90;99.90
48454;DHT22;34261;55.678;12.464;2024-03-07T02:07:13;2.80;99.90
48454;DHT22;34261;55.678;12.464;2024-03-07T02:09:41;2.80;99.90
48454;DHT22;34261;55.678;12.464;2024-03-07T02:12:10;2.70;99.90
48454;DHT22;34261;55.678;12.464;2024-03-07T02:14:41;2.60;99.90
48454;DHT22;34261;55.678;12.464;2024-03-07T03:43:35;2.40;99.90
48454;DHT22;34261;55.678;12.464;2024-03-07T03:46:02;2.40;99.90
48454;DHT22;34261;55.678;12.464;2024-03-07T03:48:28;2.30;99.90
48454;DHT22;34261;55.678;12.464;2024-03-07T03:50:53;2.30;99.90
48454;DHT22;34261;55.678;12.464;2024-03-07T03:53:19;2.30;99.90
48454;DHT22;34261;55.678;12.464;2024-03-07T03:55:45;2.40;99.90
48454;DHT22;34261;55.678;12.464;2024-03-07T03:58:11;2.30;99.90
48454;DHT22;34261;55.678;12.464;2024-03-07T04:00:37;2.40;99.90
48454;DHT22;34261;55.678;12.464;2024-03-07T04:03:04;2.40;99.90
48454;DHT22;34261;55.678;12.464;2024-03-07T04:05:29;2.30;99.90
48454;DHT22;34261;55.678;12.464;2024-03-07T04:07:56;2.30;99.90
48454;DHT22;34261;55.678;12.464;2024-03-07T04:10:23;2.40;99.90
48454;DHT22;34261;55.678;12.464;2024-03-07T04:12:52;2.40;99.90
48454;DHT22;34261;55.678;12.464;2024-03-07T04:15:18;2.40;99.90
48454;DHT22;34261;55.678;12.464;2024-03-07T04:17:43;2.40;99.90
48454;DHT22;34261;55.678;12.464;2024-03-07T04:20:12;2.40;99.90
48454;DHT22;34261;55.678;12.464;2024-03-07T04:22:39;2.30;99.90
48454;DHT22;34261;55.678;12.464;2024-03-07T04:25:07;2.40;99.90
48454;DHT22;34261;55.678;12.464;2024-03-07T04:27:34;2.40;99.90
48454;DHT22;34261;55.678;12.464;2024-03-07T04:30:06;2.40;99.90
48454;DHT22;34261;55.678;12.464;2024-03-07T04:32:33;2.40;99.90
48454;DHT22;34261;55.678;12.464;2024-03-07T04:35:04;2.40;99.90
48454;DHT22;34261;55.678;12.464;2024-03-07T04:37:36;2.40;99.90
48454;DHT22;34261;55.678;12.464;2024-03-07T04:40:06;2.40;99.90
48454;DHT22;34261;55.678;12.464;2024-03-07T04:42:44;2.40;99.90
48454;DHT22;34261;55.678;12.464;2024-03-07T04:45:14;2.30;99.90
48454;DHT22;34261;55.678;12.464;2024-03-07T04:47:44;2.40;99.90
48454;DHT22;34261;55.678;12.464;2024-03-07T04:50:12;2.40;99.90
48454;DHT22;34261;55.678;12.464;2024-03-07T04:52:39;2.40;99.90
48454;DHT22;34261;55.678;12.464;2024-03-07T04:55:09;2.40;99.90
48454;DHT22;34261;55.678;12.464;2024-03-07T04:57:39;2.30;99.90
48454;DHT22;34261;55.678;12.464;2024-03-07T05:00:11;2.30;99.90
48454;DHT22;34261;55.678;12.464;2024-03-07T05:02:40;2.40;99.90
48454;DHT22;34261;55.678;12.464;2024-03-07T05:05:06;2.40;99.90
48454;DHT22;34261;55.678;12.464;2024-03-07T05:07:32;2.40;99.90
48454;DHT22;34261;55.678;12.464;2024-03-07T05:10:04;2.40;99.90
48454;DHT22;34261;55.678;12.464;2024-03-07T05:12:31;2.50;99.90
48454;DHT22;34261;55.678;12.464;2024-03-07T05:14:57;2.40;99.90
48454;DHT22;34261;55.678;12.464;2024-03-07T05:17:23;2.50;99.90
48454;DHT22;34261;55.678;12.464;2024-03-07T05:19:51;2.50;99.90
48454;DHT22;34261;55.678;12.464;2024-03-07T05:22:18;2.50;99.90
48454;DHT22;34261;55.678;12.464;2024-03-07T05:24:45;2.50;99.90
48454;DHT22;34261;55.678;12.464;2024-03-07T05:27:11;2.50;99.90
48454;DHT22;34261;55.678;12.464;2024-03-07T05:29:38;2.50;99.90
48454;DHT22;34261;55.678;12.464;2024-03-07T05:32:24;2.40;99.90
48454;DHT22;34261;55.678;12.464;2024-03-07T05:34:53;2.40;99.90
48454;DHT22;34261;55.678;12.464;2024-03-07T05:37:19;2.40;99.90
48454;DHT22;34261;55.678;12.464;2024-03-07T05:39:49;2.40;99.90
48454;DHT22;34261;55.678;12.464;2024-03-07T05:42:15;2.40;99.90
48454;DHT22;34261;55.678;12.464;2024-03-07T05:44:41;2.40;99.90
48454;DHT22;34261;55.678;12.464;2024-03-07T05:47:07;2.30;99.90
48454;DHT22;34261;55.678;12.464;2024-03-07T05:49:34;2.40;99.90
48454;DHT22;34261;55.678;12.464;2024-03-07T05:52:00;2.30;99.90
48454;DHT22;34261;55.678;12.464;2024-03-07T05:54:29;2.40;99.90
48454;DHT22;34261;55.678;12.464;2024-03-07T05:56:57;2.40;99.90
48454;DHT22;34261;55.678;12.464;2024-03-07T05:59:24;2.30;99.90
48454;DHT22;34261;55.678;12.464;2024-03-07T06:01:50;2.40;99.90
48454;DHT22;34261;55.678;12.464;2024-03-07T06:04:16;2.40;99.90
48454;DHT22;34261;55.678;12.464;2024-03-07T06:06:43;2.40;99.90
48454;DHT22;34261;55.678;12.464;2024-03-07T06:09:09;2.50;99.90
48454;DHT22;34261;55.678;12.464;2024-03-07T06:11:38;2.50;99.90
48454;DHT22;34261;55.678;12.464;2024-03-07T06:14:10;2.50;99.90
48454;DHT22;34261;55.678;12.464;2024-03-07T06:16:41;2.60;99.90
48454;DHT22;34261;55.678;12.464;2024-03-07T06:19:07;2.60;99.90
48454;DHT22;34261;55.678;12.464;2024-03-07T06:21:35;2.60;99.90
48454;DHT22;34261;55.678;12.464;2024-03-07T06:24:02;2.60;99.90
48454;DHT22;34261;55.678;12.464;2024-03-07T06:26:33;2.70;99.90
48454;DHT22;34261;55.678;12.464;2024-03-07T06:29:18;2.80;99.90
48454;DHT22;34261;55.678;12.464;2024-03-07T06:31:45;2.90;99.90
48454;DHT22;34261;55.678;12.464;2024-03-07T06:34:14;2.90;99.90
48454;DHT22;34261;55.678;12.464;2024-03-07T06:36:41;2.90;99.90
48454;DHT22;34261;55.678;12.464;2024-03-07T06:39:07;2.90;99.90
48454;DHT22;34261;55.678;12.464;2024-03-07T06:41:36;3.00;99.90
48454;DHT22;34261;55.678;12.464;2024-03-07T06:44:02;3.00;99.90
48454;DHT22;34261;55.678;12.464;2024-03-07T06:46:29;3.10;99.90
48454;DHT22;34261;55.678;12.464;2024-03-07T06:48:55;3.10;99.90
48454;DHT22;34261;55.678;12.464;2024-03-07T06:51:24;3.10;99.90
48454;DHT22;34261;55.678;12.464;2024-03-07T06:53:53;3.10;99.90
48454;DHT22;34261;55.678;12.464;2024-03-07T06:56:19;3.10;99.90
48454;DHT22;34261;55.678;12.464;2024-03-07T06:58:48;3.10;99.90
48454;DHT22;34261;55.678;12.464;2024-03-07T07:01:14;3.10;99.90
48454;DHT22;34261;55.678;12.464;2024-03-07T07:03:41;3.10;99.90
48454;DHT22;34261;55.678;12.464;2024-03-07T07:06:09;3.20;99.90
48454;DHT22;34261;55.678;12.464;2024-03-07T07:08:37;3.20;99.90
48454;DHT22;34261;55.678;12.464;2024-03-07T07:11:04;3.20;99.90
48454;DHT22;34261;55.678;12.464;2024-03-07T07:13:31;3.20;99.90
48454;DHT22;34261;55.678;12.464;2024-03-07T07:15:57;3.30;99.90
48454;DHT22;34261;55.678;12.464;2024-03-07T07:18:23;3.30;99.90
48454;DHT22;34261;55.678;12.464;2024-03-07T07:20:50;3.30;99.90
48454;DHT22;34261;55.678;12.464;2024-03-07T07:23:18;3.30;99.90
48454;DHT22;34261;55.678;12.464;2024-03-07T07:25:45;3.40;99.90
48454;DHT22;34261;55.678;12.464;2024-03-07T07:28:12;3.40;99.90
48454;DHT22;34261;55.678;12.464;2024-03-07T07:30:37;3.50;99.90
48454;DHT22;34261;55.678;12.464;2024-03-07T07:33:03;3.50;99.90
48454;DHT22;34261;55.678;12.464;2024-03-07T07:35:32;3.50;99.90
48454;DHT22;34261;55.678;12.464;2024-03-07T07:38:00;3.50;99.90
48454;DHT22;34261;55.678;12.464;2024-03-07T07:40:26;3.50;99.90
48454;DHT22;34261;55.678;12.464;2024-03-07T07:42:54;3.50;99.90
48454;DHT22;34261;55.678;12.464;2024-03-07T07:45:22;3.50;99.90
48454;DHT22;34261;55.678;12.464;2024-03-07T07:47:49;3.60;99.90
48454;DHT22;34261;55.678;12.464;2024-03-07T07:50:19;3.60;99.90
48454;DHT22;34261;55.678;12.464;2024-03-07T07:52:50;3.70;99.90
48454;DHT22;34261;55.678;12.464;2024-03-07T07:55:42;3.70;99.90
48454;DHT22;34261;55.678;12.464;2024-03-07T07:58:30;3.80;99.90
48454;DHT22;34261;55.678;12.464;2024-03-07T08:03:33;3.90;99.90
48454;DHT22;34261;55.678;12.464;2024-03-07T08:06:16;3.90;99.90
48454;DHT22;34261;55.678;12.464;2024-03-07T08:09:20;4.00;99.90
48454;DHT22;34261;55.678;12.464;2024-03-07T08:11:49;4.10;99.90
48454;DHT22;34261;55.678;12.464;2024-03-07T08:14:35;4.10;99.90
48454;DHT22;34261;55.678;12.464;2024-03-07T08:17:17;4.20;99.90
48454;DHT22;34261;55.678;12.464;2024-03-07T08:19:46;4.20;99.90
48454;DHT22;34261;55.678;12.464;2024-03-07T08:22:12;4.30;99.90
48454;DHT22;34261;55.678;12.464;2024-03-07T08:24:40;4.30;99.90
48454;DHT22;34261;55.678;12.464;2024-03-07T08:27:07;4.40;99.90
48454;DHT22;34261;55.678;12.464;2024-03-07T08:29:39;4.60;99.90
48454;DHT22;34261;55.678;12.464;2024-03-07T08:32:09;4.70;99.90
48454;DHT22;34261;55.678;12.464;2024-03-07T08:34:35;4.70;99.90
48454;DHT22;34261;55.678;12.464;2024-03-07T08:37:01;4.70;99.90
48454;DHT22;34261;55.678;12.464;2024-03-07T08:39:30;4.70;99.90
48454;DHT22;34261;55.678;12.464;2024-03-07T08:41:59;4.80;99.90
48454;DHT22;34261;55.678;12.464;2024-03-07T08:44:25;4.90;99.90
48454;DHT22;34261;55.678;12.464;2024-03-07T08:46:52;5.00;99.90
48454;DHT22;34261;55.678;12.464;2024-03-07T08:49:19;5.10;99.90
48454;DHT22;34261;55.678;12.464;2024-03-07T08:51:51;5.20;99.90
48454;DHT22;34261;55.678;12.464;2024-03-07T08:54:17;5.20;99.90
48454;DHT22;34261;55.678;12.464;2024-03-07T08:56:43;5.10;99.90
48454;DHT22;34261;55.678;12.464;2024-03-07T08:59:15;5.20;99.90
48454;DHT22;34261;55.678;12.464;2024-03-07T09:01:42;5.30;99.90
48454;DHT22;34261;55.678;12.464;2024-03-07T09:04:09;5.30;99.90
48454;DHT22;34261;55.678;12.464;2024-03-07T09:06:38;5.40;99.90
48454;DHT22;34261;55.678;12.464;2024-03-07T09:09:07;5.50;99.90
48454;DHT22;34261;55.678;12.464;2024-03-07T09:11:35;5.60;99.90
48454;DHT22;34261;55.678;12.464;2024-03-07T09:14:03;5.50;99.90
48454;DHT22;34261;55.678;12.464;2024-03-07T09:16:35;5.60;99.90
48454;DHT22;34261;55.678;12.464;2024-03-07T09:19:03;5.60;99.90
48454;DHT22;34261;55.678;12.464;2024-03-07T09:21:28;5.70;99.90
48454;DHT22;34261;55.678;12.464;2024-03-07T09:23:55;5.90;99.90
48454;DHT22;34261;55.678;12.464;2024-03-07T09:26:21;6.10;99.90
48454;DHT22;34261;55.678;12.464;2024-03-07T09:28:47;6.10;99.90
48454;DHT22;34261;55.678;12.464;2024-03-07T09:31:17;6.20;99.90
48454;DHT22;34261;55.678;12.464;2024-03-07T09:33:43;6.30;99.90
48454;DHT22;34261;55.678;12.464;2024-03-07T09:36:08;6.30;99.90
48454;DHT22;34261;55.678;12.464;2024-03-07T09:38:34;6.30;99.90
48454;DHT22;34261;55.678;12.464;2024-03-07T09:41:01;6.30;99.90
48454;DHT22;34261;55.678;12.464;2024-03-07T09:43:28;6.30;99.90
48454;DHT22;34261;55.678;12.464;2024-03-07T09:45:56;6.20;99.90
48454;DHT22;34261;55.678;12.464;2024-03-07T09:48:23;6.20;99.90
48454;DHT22;34261;55.678;12.464;2024-03-07T09:50:52;6.40;99.90
48454;DHT22;34261;55.678;12.464;2024-03-07T09:53:21;6.40;99.90
48454;DHT22;34261;55.678;12.464;2024-03-07T09:55:47;6.60;99.90
48454;DHT22;34261;55.678;12.464;2024-03-07T09:58:15;6.70;99.90
48454;DHT22;34261;55.678;12.464;2024-03-07T10:00:45;6.70;99.90
48454;DHT22;34261;55.678;12.464;2024-03-07T10:03:12;6.70;99.90
48454;DHT22;34261;55.678;12.464;2024-03-07T10:05:41;6.70;99.90
48454;DHT22;34261;55.678;12.464;2024-03-07T10:08:07;6.70;99.90
48454;DHT22;34261;55.678;12.464;2024-03-07T10:10:33;6.70;99.90
48454;DHT22;34261;55.678;12.464;2024-03-07T10:12:59;6.90;99.90
48454;DHT22;34261;55.678;12.464;2024-03-07T10:15:29;7.00;99.90
48454;DHT22;34261;55.678;12.464;2024-03-07T10:17:55;7.10;99.90
48454;DHT22;34261;55.678;12.464;2024-03-07T10:20:21;7.20;99.90
48454;DHT22;34261;55.678;12.464;2024-03-07T10:22:48;7.20;99.90
48454;DHT22;34261;55.678;12.464;2024-03-07T10:25:17;7.30;99.90
48454;DHT22;34261;55.678;12.464;2024-03-07T10:27:43;7.30;99.90
48454;DHT22;34261;55.678;12.464;2024-03-07T10:30:10;7.30;99.90
48454;DHT22;34261;55.678;12.464;2024-03-07T10:32:41;7.40;99.90
48454;DHT22;34261;55.678;12.464;2024-03-07T10:35:08;7.40;99.90
48454;DHT22;34261;55.678;12.464;2024-03-07T10:37:35;7.50;99.90
48454;DHT22;34261;55.678;12.464;2024-03-07T10:40:01;7.80;99.90
48454;DHT22;34261;55.678;12.464;2024-03-07T10:42:46;8.00;99.90
48454;DHT22;34261;55.678;12.464;2024-03-07T10:45:19;8.00;99.90
48454;DHT22;34261;55.678;12.464;2024-03-07T10:47:56;8.10;99.90
48454;DHT22;34261;55.678;12.464;2024-03-07T10:53:04;8.50;99.90
48454;DHT22;34261;55.678;12.464;2024-03-07T10:55:44;8.50;99.90
48454;DHT22;34261;55.678;12.464;2024-03-07T10:58:27;8.40;99.90
48454;DHT22;34261;55.678;12.464;2024-03-07T11:01:02;8.60;99.90
48454;DHT22;34261;55.678;12.464;2024-03-07T11:03:31;8.70;99.90
48454;DHT22;34261;55.678;12.464;2024-03-07T11:06:00;8.90;99.90
48454;DHT22;34261;55.678;12.464;2024-03-07T11:08:35;9.10;99.90
48454;DHT22;34261;55.678;12.464;2024-03-07T11:11:02;9.30;99.90
48454;DHT22;34261;55.678;12.464;2024-03-07T11:13:32;9.30;99.90
48454;DHT22;34261;55.678;12.464;2024-03-07T11:15:59;9.40;99.90
48454;DHT22;34261;55.678;12.464;2024-03-07T11:18:29;9.40;99.90
48454;DHT22;34261;55.678;12.464;2024-03-07T11:20:55;9.50;99.90
48454;DHT22;34261;55.678;12.464;2024-03-07T11:23:30;9.50;99.90
48454;DHT22;34261;55.678;12.464;2024-03-07T11:26:06;9.60;99.90
48454;DHT22;34261;55.678;12.464;2024-03-07T11:28:40;9.80;99.90
48454;DHT22;34261;55.678;12.464;2024-03-07T11:31:36;9.90;99.90
48454;DHT22;34261;55.678;12.464;2024-03-07T11:34:15;9.80;99.90
48454;DHT22;34261;55.678;12.464;2024-03-07T11:36:42;9.80;99.90
48454;DHT22;34261;55.678;12.464;2024-03-07T11:39:46;10.00;99.90
48454;DHT22;34261;55.678;12.464;2024-03-07T11:42:31;10.20;99.90
48454;DHT22;34261;55.678;12.464;2024-03-07T11:45:00;10.30;99.90
48454;DHT22;34261;55.678;12.464;2024-03-07T11:47:36;10.40;99.90
48454;DHT22;34261;55.678;12.464;2024-03-07T11:50:07;10.80;99.90
48454;DHT22;34261;55.678;12.464;2024-03-07T11:52:39;10.70;99.90
48454;DHT22;34261;55.678;12.464;2024-03-07T11:55:09;10.90;99.90
48454;DHT22;34261;55.678;12.464;2024-03-07T11:57:36;10.90;99.90
48454;DHT22;34261;55.678;12.464;2024-03-07T12:00:04;11.00;99.90
48454;DHT22;34261;55.678;12.464;2024-03-07T12:03:09;10.70;99.90
48454;DHT22;34261;55.678;12.464;2024-03-07T12:05:40;10.80;99.90
48454;DHT22;34261;55.678;12.464;2024-03-07T12:08:07;10.90;99.90
48454;DHT22;34261;55.678;12.464;2024-03-07T12:10:36;10.90;99.90
48454;DHT22;34261;55.678;12.464;2024-03-07T12:13:03;11.10;99.90
48454;DHT22;34261;55.678;12.464;2024-03-07T12:15:29;11.40;99.90
48454;DHT22;34261;55.678;12.464;2024-03-07T12:17:56;11.60;99.90
48454;DHT22;34261;55.678;12.464;2024-03-07T12:20:23;11.80;99.90
48454;DHT22;34261;55.678;12.464;2024-03-07T12:23:01;11.90;99.90
48454;DHT22;34261;55.678;12.464;2024-03-07T13:54:06;13.40;97.30
48454;DHT22;34261;55.678;12.464;2024-03-07T13:57:06;13.50;97.60
48454;DHT22;34261;55.678;12.464;2024-03-07T14:02:41;13.80;97.60
48454;DHT22;34261;55.678;12.464;2024-03-07T14:05:37;13.90;96.60
48454;DHT22;34261;55.678;12.464;2024-03-07T14:23:30;14.00;96.50
48454;DHT22;34261;55.678;12.464;2024-03-07T14:32:13;14.20;96.30
48454;DHT22;34261;55.678;12.464;2024-03-07T14:35:17;14.20;95.90
48454;DHT22;34261;55.678;12.464;2024-03-07T14:38:05;14.10;96.00
48454;DHT22;34261;55.678;12.464;2024-03-07T14:40:32;14.10;95.50
48454;DHT22;34261;55.678;12.464;2024-03-07T14:43:01;14.20;96.10
48454;DHT22;34261;55.678;12.464;2024-03-07T14:45:36;14.10;95.70
48454;DHT22;34261;55.678;12.464;2024-03-07T14:48:02;14.20;95.30
48454;DHT22;34261;55.678;12.464;2024-03-07T14:50:30;14.20;95.60
48454;DHT22;34261;55.678;12.464;2024-03-07T14:52:58;14.30;95.60
48454;DHT22;34261;55.678;12.464;2024-03-07T14:55:24;14.30;95.20
48454;DHT22;34261;55.678;12.464;2024-03-07T14:57:50;14.20;95.30
48454;DHT22;34261;55.678;12.464;2024-03-07T15:00:16;14.20;95.10
48454;DHT22;34261;55.678;12.464;2024-03-07T15:02:49;14.30;95.30
48454;DHT22;34261;55.678;12.464;2024-03-07T15:05:17;14.20;95.30
48454;DHT22;34261;55.678;12.464;2024-03-07T15:07:46;14.20;95.40
48454;DHT22;34261;55.678;12.464;2024-03-07T15:10:25;14.30;95.10
48454;DHT22;34261;55.678;12.464;2024-03-07T15:12:52;14.30;95.50
48454;DHT22;34261;55.678;12.464;2024-03-07T15:15:19;14.30;95.20
48454;DHT22;34261;55.678;12.464;2024-03-07T15:17:48;14.30;95.00
48454;DHT22;34261;55.678;12.464;2024-03-07T15:20:14;14.20;95.10
48454;DHT22;34261;55.678;12.464;2024-03-07T15:22:54;14.10;95.30
48454;DHT22;34261;55.678;12.464;2024-03-07T15:25:20;14.10;94.90
48454;DHT22;34261;55.678;12.464;2024-03-07T15:27:48;14.00;95.10
48454;DHT22;34261;55.678;12.464;2024-03-07T15:30:16;14.00;94.90
48454;DHT22;34261;55.678;12.464;2024-03-07T15:32:42;13.90;95.10
48454;DHT22;34261;55.678;12.464;2024-03-07T15:35:09;13.80;95.30
48454;DHT22;34261;55.678;12.464;2024-03-07T15:37:41;13.70;95.30
48454;DHT22;34261;55.678;12.464;2024-03-07T15:40:08;13.30;95.50
48454;DHT22;34261;55.678;12.464;2024-03-07T15:42:38;12.80;95.90
48454;DHT22;34261;55.678;12.464;2024-03-07T15:45:07;12.50;96.50
48454;DHT22;34261;55.678;12.464;2024-03-07T15:47:48;12.20;96.70
48454;DHT22;34261;55.678;12.464;2024-03-07T15:50:14;11.90;96.90
48454;DHT22;34261;55.678;12.464;2024-03-07T15:52:43;11.60;97.50
48454;DHT22;34261;55.678;12.464;2024-03-07T15:55:11;11.40;97.60
48454;DHT22;34261;55.678;12.464;2024-03-07T15:57:49;11.30;98.20
48454;DHT22;34261;55.678;12.464;2024-03-07T16:00:20;11.30;98.40
48454;DHT22;34261;55.678;12.464;2024-03-07T16:03:05;11.30;98.00
48454;DHT22;34261;55.678;12.464;2024-03-07T16:05:34;11.30;98.20
48454;DHT22;34261;55.678;12.464;2024-03-07T16:08:06;11.00;98.40
48454;DHT22;34261;55.678;12.464;2024-03-07T16:10:37;10.80;98.90
48454;DHT22;34261;55.678;12.464;2024-03-07T16:13:04;10.60;99.00
48454;DHT22;34261;55.678;12.464;2024-03-07T16:15:33;10.50;99.20
48454;DHT22;34261;55.678;12.464;2024-03-07T16:17:59;10.40;99.20
48454;DHT22;34261;55.678;12.464;2024-03-07T16:20:26;10.30;99.50
48454;DHT22;34261;55.678;12.464;2024-03-07T16:22:57;10.20;99.70
48454;DHT22;34261;55.678;12.464;2024-03-07T16:25:24;10.00;99.70
48454;DHT22;34261;55.678;12.464;2024-03-07T16:27:51;9.80;99.90
48454;DHT22;34261;55.678;12.464;2024-03-07T16:30:20;9.60;99.90
48454;DHT22;34261;55.678;12.464;2024-03-07T16:32:51;9.50;99.90
48454;DHT22;34261;55.678;12.464;2024-03-07T16:35:28;9.30;99.90
48454;DHT22;34261;55.678;12.464;2024-03-07T16:37:57;9.00;99.90
48454;DHT22;34261;55.678;12.464;2024-03-07T16:40:25;8.90;99.90
48454;DHT22;34261;55.678;12.464;2024-03-07T16:42:53;8.70;99.90
48454;DHT22;34261;55.678;12.464;2024-03-07T16:45:22;8.70;99.90
48454;DHT22;34261;55.678;12.464;2024-03-07T16:47:50;8.40;99.90
48454;DHT22;34261;55.678;12.464;2024-03-07T16:50:18;8.30;99.90
48454;DHT22;34261;55.678;12.464;2024-03-07T16:52:45;8.20;99.90
48454;DHT22;34261;55.678;12.464;2024-03-07T16:55:13;8.00;99.90
48454;DHT22;34261;55.678;12.464;2024-03-07T16:57:50;7.90;99.90
48454;DHT22;34261;55.678;12.464;2024-03-07T17:00:21;7.80;99.90
48454;DHT22;34261;55.678;12.464;2024-03-07T17:03:03;7.70;99.90
48454;DHT22;34261;55.678;12.464;2024-03-07T17:05:33;7.50;99.90
48454;DHT22;34261;55.678;12.464;2024-03-07T17:08:00;7.30;99.90
48454;DHT22;34261;55.678;12.464;2024-03-07T17:10:30;7.20;99.90
48454;DHT22;34261;55.678;12.464;2024-03-07T17:12:58;7.20;99.90
48454;DHT22;34261;55.678;12.464;2024-03-07T17:15:53;7.10;99.90
48454;DHT22;34261;55.678;12.464;2024-03-07T17:18:22;6.90;99.90
48454;DHT22;34261;55.678;12.464;2024-03-07T17:20:47;6.80;99.90
48454;DHT22;34261;55.678;12.464;2024-03-07T17:23:16;6.80;99.90
48454;DHT22;34261;55.678;12.464;2024-03-07T17:25:42;6.60;99.90
48454;DHT22;34261;55.678;12.464;2024-03-07T17:28:09;6.50;99.90
48454;DHT22;34261;55.678;12.464;2024-03-07T17:30:35;6.40;99.90
48454;DHT22;34261;55.678;12.464;2024-03-07T17:33:03;6.40;99.90
48454;DHT22;34261;55.678;12.464;2024-03-07T17:35:30;6.30;99.90
48454;DHT22;34261;55.678;12.464;2024-03-07T17:37:59;6.30;99.90
48454;DHT22;34261;55.678;12.464;2024-03-07T17:40:28;6.20;99.90
48454;DHT22;34261;55.678;12.464;2024-03-07T17:43:02;6.10;99.90
48454;DHT22;34261;55.678;12.464;2024-03-07T17:45:30;6.10;99.90
48454;DHT22;34261;55.678;12.464;2024-03-07T17:48:01;6.10;99.90
48454;DHT22;34261;55.678;12.464;2024-03-07T17:50:35;6.00;99.90
48454;DHT22;34261;55.678;12.464;2024-03-07T17:53:05;5.90;99.90
48454;DHT22;34261;55.678;12.464;2024-03-07T17:55:34;5.80;99.90
48454;DHT22;34261;55.678;12.464;2024-03-07T17:58:02;5.80;99.90
48454;DHT22;34261;55.678;12.464;2024-03-07T18:00:34;5.70;99.90
48454;DHT22;34261;55.678;12.464;2024-03-07T18:03:23;5.70;99.90
48454;DHT22;34261;55.678;12.464;2024-03-07T18:06:03;5.70;99.90
48454;DHT22;34261;55.678;12.464;2024-03-07T18:08:37;5.70;99.90
48454;DHT22;34261;55.678;12.464;2024-03-07T18:11:04;5.50;99.90
48454;DHT22;34261;55.678;12.464;2024-03-07T18:13:34;5.50;99.90
48454;DHT22;34261;55.678;12.464;2024-03-07T18:16:14;5.40;99.90
48454;DHT22;34261;55.678;12.464;2024-03-07T18:18:45;5.30;99.90
48454;DHT22;34261;55.678;12.464;2024-03-07T18:21:15;5.30;99.90
48454;DHT22;34261;55.678;12.464;2024-03-07T18:23:47;5.20;99.90
48454;DHT22;34261;55.678;12.464;2024-03-07T18:26:15;5.20;99.90
48454;DHT22;34261;55.678;12.464;2024-03-07T18:28:41;5.10;99.90
48454;DHT22;34261;55.678;12.464;2024-03-07T18:31:15;5.00;99.90
48454;DHT22;34261;55.678;12.464;2024-03-07T18:33:49;4.90;99.90
48454;DHT22;34261;55.678;12.464;2024-03-07T18:36:20;4.80;99.90
48454;DHT22;34261;55.678;12.464;2024-03-07T18:38:55;4.70;99.90
48454;DHT22;34261;55.678;12.464;2024-03-07T18:41:32;4.60;99.90
48454;DHT22;34261;55.678;12.464;2024-03-07T18:44:01;4.50;99.90
48454;DHT22;34261;55.678;12.464;2024-03-07T18:51:51;4.40;99.90
48454;DHT22;34261;55.678;12.464;2024-03-07T18:54:19;4.30;99.90
48454;DHT22;34261;55.678;12.464;2024-03-07T18:56:50;4.30;99.90
48454;DHT22;34261;55.678;12.464;2024-03-07T18:59:16;4.20;99.90
48454;DHT22;34261;55.678;12.464;2024-03-07T19:01:45;4.10;99.90
48454;DHT22;34261;55.678;12.464;2024-03-07T19:04:11;4.00;99.90
48454;DHT22;34261;55.678;12.464;2024-03-07T19:06:41;3.90;99.90
48454;DHT22;34261;55.678;12.464;2024-03-07T19:09:07;3.90;99.90
48454;DHT22;34261;55.678;12.464;2024-03-07T19:11:45;3.90;99.90
48454;DHT22;34261;55.678;12.464;2024-03-07T19:14:13;3.80;99.90
48454;DHT22;34261;55.678;12.464;2024-03-07T19:16:46;3.80;99.90
48454;DHT22;34261;55.678;12.464;2024-03-07T19:19:13;3.70;99.90
48454;DHT22;34261;55.678;12.464;2024-03-07T19:21:42;3.80;99.90
48454;DHT22;34261;55.678;12.464;2024-03-07T19:24:08;3.70;99.90
48454;DHT22;34261;55.678;12.464;2024-03-07T19:26:45;3.80;99.90
48454;DHT22;34261;55.678;12.464;2024-03-07T19:29:14;3.70;99.90
48454;DHT22;34261;55.678;12.464;2024-03-07T19:31:49;3.60;99.90
48454;DHT22;34261;55.678;12.464;2024-03-07T19:34:18;3.60;99.90
48454;DHT22;34261;55.678;12.464;2024-03-07T19:36:51;3.50;99.90
48454;DHT22;34261;55.678;12.464;2024-03-07T19:39:19;3.50;99.90
48454;DHT22;34261;55.678;12.464;2024-03-07T19:41:46;3.50;99.90
48454;DHT22;34261;55.678;12.464;2024-03-07T19:44:16;3.40;99.90
48454;DHT22;34261;55.678;12.464;2024-03-07T19:46:47;3.40;99.90
48454;DHT22;34261;55.678;12.464;2024-03-07T19:49:15;3.30;99.90
48454;DHT22;34261;55.678;12.464;2024-03-07T19:51:42;3.20;99.90
48454;DHT22;34261;55.678;12.464;2024-03-07T19:54:08;3.20;99.90
48454;DHT22;34261;55.678;12.464;2024-03-07T19:56:35;3.20;99.90
48454;DHT22;34261;55.678;12.464;2024-03-07T19:59:04;3.20;99.90
48454;DHT22;34261;55.678;12.464;2024-03-07T20:01:34;3.10;99.90
48454;DHT22;34261;55.678;12.464;2024-03-07T20:04:01;3.10;99.90
48454;DHT22;34261;55.678;12.464;2024-03-07T20:06:32;3.10;99.90
48454;DHT22;34261;55.678;12.464;2024-03-07T20:08:57;3.00;99.90
48454;DHT22;34261;55.678;12.464;2024-03-07T20:11:24;3.10;99.90
48454;DHT22;34261;55.678;12.464;2024-03-07T20:13:50;3.10;99.90
48454;DHT22;34261;55.678;12.464;2024-03-07T20:16:15;3.30;99.90
48454;DHT22;34261;55.678;12.464;2024-03-07T20:18:41;3.30;99.90
48454;DHT22;34261;55.678;12.464;2024-03-07T20:21:09;3.40;99.90
48454;DHT22;34261;55.678;12.464;2024-03-07T20:23:34;3.40;99.90
48454;DHT22;34261;55.678;12.464;2024-03-07T20:26:00;3.40;99.90
48454;DHT22;34261;55.678;12.464;2024-03-07T20:28:30;3.50;99.90
48454;DHT22;34261;55.678;12.464;2024-03-07T20:30:56;3.50;99.90
48454;DHT22;34261;55.678;12.464;2024-03-07T20:33:21;3.40;99.90
48454;DHT22;34261;55.678;12.464;2024-03-07T20:35:47;3.40;99.90
48454;DHT22;34261;55.678;12.464;2024-03-07T20:38:16;3.40;99.90
48454;DHT22;34261;55.678;12.464;2024-03-07T20:40:41;3.30;99.90
48454;DHT22;34261;55.678;12.464;2024-03-07T20:43:08;3.30;99.90
48454;DHT22;34261;55.678;12.464;2024-03-07T20:45:37;3.30;99.90
48454;DHT22;34261;55.678;12.464;2024-03-07T20:48:05;3.20;99.90
48454;DHT22;34261;55.678;12.464;2024-03-07T20:50:36;3.10;99.90
48454;DHT22;34261;55.678;12.464;2024-03-07T20:53:04;3.00;99.90